Time;durP1;ratioP1;P1;durP2;ratioP2;P2;SDS_P1;SDS_P2;PMS_P1;PMS_P2;Temp;Humidity;BMP_temperature;BMP_pressure;BME280_temperature;BME280_humidity;BME280_pressure;Samples;Min_cycle;Max_cycle;Signal;HPM_P1;HPM_P2
2023/09/22 00:02:17;;;;;;;;;;;;;;;;;;7366967;19;2063;-61
2023/09/22 00:04:46;;;;;;;;;;;;;;;;;;7367694;19;1481;-60
2023/09/22 00:07:14;;;;;;;;;;;;;;;;;;7369070;19;1697;-60
2023/09/22 00:09:42;;;;;;;;;;;;;;;;;;7364980;19;1390;-62
2023/09/22 00:12:10;;;;;;;;;;;;;;;;;;7370178;19;1625;-62
2023/09/22 00:14:38;;;;;;;;;;;;;;;;;;7365693;19;1968;-64
2023/09/22 00:17:07;;;;;;;;;;;;;;;;;;7367933;19;1548;-64
2023/09/22 00:19:35;;;;;;;;;;;;;;;;;;7365967;19;1635;-65
2023/09/22 00:22:05;;;;;;;;;;;;;;;;;;7368904;19;1883;-62
2023/09/22 00:24:33;;;;;;;;;;;;;;;;;;7366826;19;1613;-64
2023/09/22 00:27:01;;;;;;;;;;;;;;;;;;7365965;19;1443;-66
2023/09/22 00:29:29;;;;;;;;;;;;;;;;;;7365541;19;1927;-67
2023/09/22 00:31:58;;;;;;;;;;;;;;;;;;7368199;19;1776;-67
2023/09/22 00:34:26;;;;;;;;;;;;;;;;;;7364418;19;1859;-65
2023/09/22 00:36:56;;;;;;;;;;;;;;;;;;7373451;19;1319;-65
2023/09/22 00:39:24;;;;;;;;;;;;;;;;;;7372254;19;1968;-65
2023/09/22 00:41:53;;;;;;;;;;;;;;;;;;7374104;19;1474;-67
2023/09/22 00:44:21;;;;;;;;;;;;;;;;;;7375376;19;2092;-65
2023/09/22 00:46:49;;;;;;;;;;;;;;;;;;7375302;19;1804;-66
2023/09/22 00:49:17;;;;;;;;;;;;;;;;;;7374132;19;1708;-66
2023/09/22 00:51:46;;;;;;;;;;;;;;;;;;7373389;19;1811;-67
2023/09/22 00:54:14;;;;;;;;;;;;;;;;;;7370528;19;1854;-65
2023/09/22 00:56:42;;;;;;;;;;;;;;;;;;7370610;19;1843;-65
2023/09/22 00:59:10;;;;;;;;;;;;;;;;;;7371011;19;1737;-66
2023/09/22 01:01:39;;;;;;;;;;;;;;;;;;7372344;19;2058;-66
2023/09/22 01:04:08;;;;;;;;;;;;;;;;;;7371406;19;1980;-65
2023/09/22 01:06:37;;;;;;;;;;;;;;;;;;7371561;19;1753;-64
2023/09/22 01:09:05;;;;;;;;;;;;;;;;;;7370224;19;1723;-66
2023/09/22 01:11:34;;;;;;;;;;;;;;;;;;7371939;19;1788;-67
2023/09/22 01:14:03;;;;;;;;;;;;;;;;;;7371777;19;1863;-66
2023/09/22 01:16:31;;;;;;;;;;;;;;;;;;7368867;19;2005;-66
2023/09/22 01:18:59;;;;;;;;;;;;;;;;;;7370811;19;1796;-66
2023/09/22 01:21:28;;;;;;;;;;;;;;;;;;7370370;19;1714;-66
2023/09/22 01:23:57;;;;;;;;;;;;;;;;;;7373167;19;2087;-66
2023/09/22 01:26:26;;;;;;;;;;;;;;;;;;7371744;19;1476;-64
2023/09/22 01:28:54;;;;;;;;;;;;;;;;;;7367686;19;1277;-66
2023/09/22 01:31:22;;;;;;;;;;;;;;;;;;7367969;19;826;-66
2023/09/22 01:33:50;;;;;;;;;;;;;;;;;;7368201;19;1837;-68
2023/09/22 01:36:19;;;;;;;;;;;;;;;;;;7366867;19;1412;-65
2023/09/22 01:38:47;;;;;;;;;;;;;;;;;;7369146;19;1815;-67
2023/09/22 01:41:15;;;;;;;;;;;;;;;;;;7370542;19;2042;-66
2023/09/22 01:43:44;;;;;;;;;;;;;;;;;;7370851;19;1666;-66
2023/09/22 01:46:12;;;;;;;;;;;;;;;;;;7370006;19;1683;-67
2023/09/22 01:48:40;;;;;;;;;;;;;;;;;;7366959;19;1735;-65
2023/09/22 01:51:08;;;;;;;;;;;;;;;;;;7372742;19;1696;-61
2023/09/22 01:53:39;;;;;;;;;;;;;;;;;;7369618;19;1935;-66
2023/09/22 01:56:07;;;;;;;;;;;;;;;;;;7368879;19;1602;-66
2023/09/22 01:58:36;;;;;;;;;;;;;;;;;;7369108;19;1660;-65
2023/09/22 02:01:04;;;;;;;;;;;;;;;;;;7370615;19;1899;-66
2023/09/22 02:03:32;;;;;;;;;;;;;;;;;;7370507;19;2098;-66
2023/09/22 02:06:00;;;;;;;;;;;;;;;;;;7369964;19;1693;-64
2023/09/22 02:08:28;;;;;;;;;;;;;;;;;;7367532;19;2105;-64
2023/09/22 02:10:56;;;;;;;;;;;;;;;;;;7370286;19;1778;-66
2023/09/22 02:13:25;;;;;;;;;;;;;;;;;;7371801;19;1471;-65
2023/09/22 02:15:54;;;;;;;;;;;;;;;;;;7365642;19;1842;-65
2023/09/22 02:18:23;;;;;;;;;;;;;;;;;;7368173;19;1336;-70
2023/09/22 02:20:51;;;;;;;;;;;;;;;;;;7369918;19;1764;-65
2023/09/22 02:23:19;;;;;;;;;;;;;;;;;;7369523;19;1808;-65
2023/09/22 02:25:48;;;;;;;;;;;;;;;;;;7370670;19;1626;-65
2023/09/22 02:28:16;;;;;;;;;;;;;;;;;;7367609;19;1471;-65
2023/09/22 02:30:44;;;;;;;;;;;;;;;;;;7371703;19;1472;-65
2023/09/22 02:33:12;;;;;;;;;;;;;;;;;;7368299;19;1984;-65
2023/09/22 02:35:40;;;;;;;;;;;;;;;;;;7368057;19;2022;-65
2023/09/22 02:38:09;;;;;;;;;;;;;;;;;;7368474;19;1995;-65
2023/09/22 02:40:37;;;;;;;;;;;;;;;;;;7369534;19;1718;-66
2023/09/22 02:43:06;;;;;;;;;;;;;;;;;;7370711;19;1775;-65
2023/09/22 02:45:34;;;;;;;;;;;;;;;;;;7369732;19;1711;-65
2023/09/22 02:48:02;;;;;;;;;;;;;;;;;;7369765;19;2114;-64
2023/09/22 02:50:30;;;;;;;;;;;;;;;;;;7369133;19;1627;-64
2023/09/22 02:53:00;;;;;;;;;;;;;;;;;;7369057;19;1532;-64
2023/09/22 02:55:28;;;;;;;;;;;;;;;;;;7366172;19;1857;-65
2023/09/22 02:57:56;;;;;;;;;;;;;;;;;;7368074;19;1439;-65
2023/09/22 03:00:26;;;;;;;;;;;;;;;;;;7368500;19;2171;-66
2023/09/22 03:02:55;;;;;;;;;;;;;;;;;;7371347;19;1753;-65
2023/09/22 03:05:23;;;;;;;;;;;;;;;;;;7368293;19;1695;-65
2023/09/22 03:07:55;;;;;;;;;;;;;;;;;;7367055;19;1952;-64
2023/09/22 03:10:23;;;;;;;;;;;;;;;;;;7369194;19;1716;-65
2023/09/22 03:12:52;;;;;;;;;;;;;;;;;;7368621;19;1511;-65
2023/09/22 03:15:20;;;;;;;;;;;;;;;;;;7365787;19;1858;-65
2023/09/22 03:17:49;;;;;;;;;;;;;;;;;;7368823;19;1687;-65
2023/09/22 03:20:17;;;;;;;;;;;;;;;;;;7365934;19;2153;-64
2023/09/22 03:22:46;;;;;;;;;;;;;;;;;;7366735;19;1861;-65
2023/09/22 03:25:14;;;;;;;;;;;;;;;;;;7367979;19;1675;-64
2023/09/22 03:27:43;;;;;;;;;;;;;;;;;;7367881;19;1725;-64
2023/09/22 03:30:13;;;;;;;;;;;;;;;;;;7366354;19;1730;-64
2023/09/22 03:32:42;;;;;;;;;;;;;;;;;;7366569;19;1649;-65
2023/09/22 03:35:13;;;;;;;;;;;;;;;;;;7362523;19;1845;-64
2023/09/22 03:37:41;;;;;;;;;;;;;;;;;;7365450;19;841;-64
2023/09/22 03:40:13;;;;;;;;;;;;;;;;;;7361302;19;1309;-64
2023/09/22 03:42:42;;;;;;;;;;;;;;;;;;7371160;19;740;-64
2023/09/22 03:45:11;;;;;;;;;;;;;;;;;;7366895;19;1741;-64
2023/09/22 03:47:39;;;;;;;;;;;;;;;;;;7366668;19;854;-64
2023/09/22 03:50:07;;;;;;;;;;;;;;;;;;7363287;19;1638;-64
2023/09/22 03:52:36;;;;;;;;;;;;;;;;;;7364774;19;2063;-64
2023/09/22 03:55:04;;;;;;;;;;;;;;;;;;7364450;19;1913;-64
2023/09/22 03:57:32;;;;;;;;;;;;;;;;;;7366655;19;1724;-64
2023/09/22 04:00:01;;;;;;;;;;;;;;;;;;7363214;19;1855;-63
2023/09/22 04:02:30;;;;;;;;;;;;;;;;;;7366361;19;1715;-64
2023/09/22 04:04:58;;;;;;;;;;;;;;;;;;7366472;19;1806;-65
2023/09/22 04:07:26;;;;;;;;;;;;;;;;;;7366165;19;1690;-63
2023/09/22 04:09:56;;;;;;;;;;;;;;;;;;7365700;19;2174;-63
2023/09/22 04:12:25;;;;;;;;;;;;;;;;;;7372409;19;1723;-63
2023/09/22 04:14:53;;;;;;;;;;;;;;;;;;7372573;19;1857;-63
2023/09/22 04:17:21;;;;;;;;;;;;;;;;;;7374887;19;1701;-64
2023/09/22 04:19:50;;;;;;;;;;;;;;;;;;7372123;19;1848;-63
2023/09/22 04:22:18;;;;;;;;;;;;;;;;;;7374814;19;1675;-63
2023/09/22 04:24:50;;;;;;;;;;;;;;;;;;7372554;19;2108;-63
2023/09/22 04:27:18;;;;;;;;;;;;;;;;;;7374562;19;2082;-63
2023/09/22 04:29:47;;;;;;;;;;;;;;;;;;7371292;19;1990;-64
2023/09/22 04:32:15;;;;;;;;;;;;;;;;;;7375712;19;1487;-63
2023/09/22 04:34:43;;;;;;;;;;;;;;;;;;7372504;19;1969;-62
2023/09/22 04:37:14;;;;;;;;;;;;;;;;;;7373614;19;1958;-63
2023/09/22 04:39:44;;;;;;;;;;;;;;;;;;7371528;19;1698;-62
2023/09/22 04:42:12;;;;;;;;;;;;;;;;;;7371460;19;1830;-63
2023/09/22 04:44:40;;;;;;;;;;;;;;;;;;7370588;19;1980;-64
2023/09/22 04:47:08;;;;;;;;;;;;;;;;;;7373597;19;1488;-65
2023/09/22 04:49:36;;;;;;;;;;;;;;;;;;7369087;19;1698;-65
2023/09/22 04:52:05;;;;;;;;;;;;;;;;;;7372227;19;1785;-64
2023/09/22 04:54:33;;;;;;;;;;;;;;;;;;7371548;19;1866;-63
2023/09/22 04:57:02;;;;;;;;;;;;;;;;;;7371165;19;2271;-64
2023/09/22 04:59:30;;;;;;;;;;;;;;;;;;7372269;19;1884;-63
2023/09/22 05:01:59;;;;;;;;;;;;;;;;;;7373328;19;1588;-63
2023/09/22 05:04:28;;;;;;;;;;;;;;;;;;7373113;19;2173;-63
2023/09/22 05:06:57;;;;;;;;;;;;;;;;;;7374441;19;1917;-65
2023/09/22 05:09:25;;;;;;;;;;;;;;;;;;7372141;19;1694;-64
2023/09/22 05:11:54;;;;;;;;;;;;;;;;;;7373566;19;1951;-65
2023/09/22 05:14:22;;;;;;;;;;;;;;;;;;7373512;19;1727;-66
2023/09/22 05:16:50;;;;;;;;;;;;;;;;;;7370476;19;1987;-65
2023/09/22 05:19:18;;;;;;;;;;;;;;;;;;7371661;19;1698;-64
2023/09/22 05:21:47;;;;;;;;;;;;;;;;;;7370436;19;1825;-64
2023/09/22 05:24:15;;;;;;;;;;;;;;;;;;7374471;19;1704;-63
2023/09/22 05:26:43;;;;;;;;;;;;;;;;;;7369392;19;797;-63
2023/09/22 05:29:11;;;;;;;;;;;;;;;;;;7368275;19;1714;-63
2023/09/22 05:31:39;;;;;;;;;;;;;;;;;;7369301;19;853;-64
2023/09/22 05:34:08;;;;;;;;;;;;;;;;;;7369580;19;872;-63
2023/09/22 05:36:36;;;;;;;;;;;;;;;;;;7366321;19;1841;-63
2023/09/22 05:39:09;;;;;;;;;;;;;;;;;;7370460;19;1695;-64
2023/09/22 05:41:37;;;;;;;;;;;;;;;;;;7373622;19;769;-63
2023/09/22 05:44:07;;;;;;;;;;;;;;;;;;7369568;19;771;-64
2023/09/22 05:46:35;;;;;;;;;;;;;;;;;;7368581;19;781;-65
2023/09/22 05:49:05;;;;;;;;;;;;;;;;;;7368840;19;1303;-63
2023/09/22 05:51:34;;;;;;;;;;;;;;;;;;7368752;19;1732;-62
2023/09/22 05:54:03;;;;;;;;;;;;;;;;;;7372084;19;1674;-64
2023/09/22 05:56:31;;;;;;;;;;;;;;;;;;7369128;19;1853;-63
2023/09/22 05:58:59;;;;;;;;;;;;;;;;;;7369135;19;1819;-65
2023/09/22 06:01:27;;;;;;;;;;;;;;;;;;7372421;19;1781;-64
2023/09/22 06:03:55;;;;;;;;;;;;;;;;;;7370927;19;2114;-65
2023/09/22 06:06:24;;;;;;;;;;;;;;;;;;7370721;19;1844;-64
2023/09/22 06:08:52;;;;;;;;;;;;;;;;;;7368570;19;1686;-63
2023/09/22 06:11:20;;;;;;;;;;;;;;;;;;7370807;19;1776;-63
2023/09/22 06:13:49;;;;;;;;;;;;;;;;;;7371021;19;1730;-65
2023/09/22 06:16:17;;;;;;;;;;;;;;;;;;7368995;19;1845;-64
2023/09/22 06:18:45;;;;;;;;;;;;;;;;;;7370067;19;1542;-64
2023/09/22 06:21:14;;;;;;;;;;;;;;;;;;7371776;19;1785;-63
2023/09/22 06:23:42;;;;;;;;;;;;;;;;;;7368404;19;833;-63
2023/09/22 06:26:12;;;;;;;;;;;;;;;;;;7363765;19;876;-63
2023/09/22 06:28:41;;;;;;;;;;;;;;;;;;7365318;19;1267;-65
2023/09/22 06:31:09;;;;;;;;;;;;;;;;;;7367866;19;874;-63
2023/09/22 06:33:37;;;;;;;;;;;;;;;;;;7365057;19;897;-65
2023/09/22 06:36:05;;;;;;;;;;;;;;;;;;7365403;19;1849;-63
2023/09/22 06:38:34;;;;;;;;;;;;;;;;;;7367871;19;1357;-63
2023/09/22 06:41:02;;;;;;;;;;;;;;;;;;7368161;19;842;-64
2023/09/22 06:43:30;;;;;;;;;;;;;;;;;;7369426;19;1849;-65
2023/09/22 06:45:59;;;;;;;;;;;;;;;;;;7368816;19;1691;-63
2023/09/22 06:48:29;;;;;;;;;;;;;;;;;;7371216;19;1349;-65
2023/09/22 06:50:58;;;;;;;;;;;;;;;;;;7367754;19;732;-64
2023/09/22 06:53:26;;;;;;;;;;;;;;;;;;7369184;19;1956;-64
2023/09/22 06:55:56;;;;;;;;;;;;;;;;;;7367660;19;1971;-63
2023/09/22 06:58:25;;;;;;;;;;;;;;;;;;7371305;19;1654;-64
2023/09/22 07:00:53;;;;;;;;;;;;;;;;;;7368798;19;1569;-65
2023/09/22 07:03:21;;;;;;;;;;;;;;;;;;7371584;19;1421;-63
2023/09/22 07:05:49;;;;;;;;;;;;;;;;;;7369953;19;1266;-66
2023/09/22 07:08:17;;;;;;;;;;;;;;;;;;7368175;19;1422;-62
2023/09/22 07:10:45;;;;;;;;;;;;;;;;;;7367734;19;801;-63
2023/09/22 07:13:14;;;;;;;;;;;;;;;;;;7367155;19;889;-63
2023/09/22 07:15:42;;;;;;;;;;;;;;;;;;7366806;19;1857;-64
2023/09/22 07:18:10;;;;;;;;;;;;;;;;;;7370056;19;1604;-64
2023/09/22 07:20:38;;;;;;;;;;;;;;;;;;7369748;19;1651;-63
2023/09/22 07:23:06;;;;;;;;;;;;;;;;;;7369567;19;1656;-63
2023/09/22 07:25:34;;;;;;;;;;;;;;;;;;7369336;19;830;-65
2023/09/22 07:28:02;;;;;;;;;;;;;;;;;;7370779;19;1475;-65
2023/09/22 07:30:30;;;;;;;;;;;;;;;;;;7368264;19;1409;-66
2023/09/22 07:32:59;;;;;;;;;;;;;;;;;;7370446;19;1549;-64
2023/09/22 07:35:27;;;;;;;;;;;;;;;;;;7370481;19;1838;-63
2023/09/22 07:37:55;;;;;;;;;;;;;;;;;;7368431;19;1501;-65
2023/09/22 07:40:23;;;;;;;;;;;;;;;;;;7369474;19;1417;-64
2023/09/22 07:42:51;;;;;;;;;;;;;;;;;;7365721;19;850;-63
2023/09/22 07:45:20;;;;;;;;;;;;;;;;;;7367264;19;1695;-65
2023/09/22 07:47:49;;;;;;;;;;;;;;;;;;7368820;19;1691;-63
2023/09/22 07:50:17;;;;;;;;;;;;;;;;;;7362479;19;1275;-63
2023/09/22 07:52:45;;;;;;;;;;;;;;;;;;7365281;19;800;-61
2023/09/22 07:55:15;;;;;;;;;;;;;;;;;;7364760;19;842;-65
2023/09/22 07:57:47;;;;;;;;;;;;;;;;;;7365652;19;889;-66
2023/09/22 08:00:18;;;;;;;;;;;;;;;;;;7362362;19;1325;-64
2023/09/22 08:02:47;;;;;;;;;;;;;;;;;;7364461;19;730;-65
2023/09/22 08:05:15;;;;;;;;;;;;;;;;;;7365063;19;791;-64
2023/09/22 08:07:45;;;;;;;;;;;;;;;;;;7365898;19;790;-64
2023/09/22 08:10:13;;;;;;;;;;;;;;;;;;7363153;19;1327;-63
2023/09/22 08:12:41;;;;;;;;;;;;;;;;;;7365740;19;826;-63
2023/09/22 08:15:09;;;;;;;;;;;;;;;;;;7364989;19;787;-64
2023/09/22 08:17:37;;;;;;;;;;;;;;;;;;7361908;19;1837;-64
2023/09/22 08:20:11;;;;;;;;;;;;;;;;;;7362844;19;1293;-65
2023/09/22 08:22:40;;;;;;;;;;;;;;;;;;7363700;19;719;-67
2023/09/22 08:25:08;;;;;;;;;;;;;;;;;;7364369;19;848;-66
2023/09/22 08:27:36;;;;;;;;;;;;;;;;;;7365254;19;806;-66
2023/09/22 08:30:09;;;;;;;;;;;;;;;;;;7362009;19;1368;-63
2023/09/22 08:32:38;;;;;;;;;;;;;;;;;;7364584;19;697;-65
2023/09/22 08:35:06;;;;;;;;;;;;;;;;;;7363325;19;1702;-63
2023/09/22 08:37:36;;;;;;;;;;;;;;;;;;7360552;19;1851;-63
2023/09/22 08:40:05;;;;;;;;;;;;;;;;;;7362190;19;1317;-64
2023/09/22 08:42:33;;;;;;;;;;;;;;;;;;7363277;19;801;-64
2023/09/22 08:45:02;;;;;;;;;;;;;;;;;;7363281;19;928;-64
2023/09/22 08:47:30;;;;;;;;;;;;;;;;;;7364360;19;843;-63
2023/09/22 08:49:58;;;;;;;;;;;;;;;;;;7361486;19;1973;-62
2023/09/22 08:52:26;;;;;;;;;;;;;;;;;;7367006;19;1982;-65
2023/09/22 08:54:54;;;;;;;;;;;;;;;;;;7366593;19;1667;-63
2023/09/22 08:57:22;;;;;;;;;;;;;;;;;;7366712;19;1841;-65
2023/09/22 08:59:50;;;;;;;;;;;;;;;;;;7370683;19;1920;-66
2023/09/22 09:02:18;;;;;;;;;;;;;;;;;;7374611;19;1408;-64
2023/09/22 09:04:47;;;;;;;;;;;;;;;;;;7369280;19;802;-65
2023/09/22 09:07:15;;;;;;;;;;;;;;;;;;7370150;19;1685;-64
2023/09/22 09:09:44;;;;;;;;;;;;;;;;;;7370166;19;2113;-64
2023/09/22 09:12:13;;;;;;;;;;;;;;;;;;7373384;19;1763;-64
2023/09/22 09:14:42;;;;;;;;;;;;;;;;;;7369088;19;784;-64
2023/09/22 09:17:10;;;;;;;;;;;;;;;;;;7368261;19;1850;-64
2023/09/22 09:19:38;;;;;;;;;;;;;;;;;;7368814;19;1512;-63
2023/09/22 09:22:09;;;;;;;;;;;;;;;;;;7370224;19;809;-63
2023/09/22 09:24:37;;;;;;;;;;;;;;;;;;7369270;19;699;-65
2023/09/22 09:27:05;;;;;;;;;;;;;;;;;;7373054;19;1686;-67
2023/09/22 09:29:34;;;;;;;;;;;;;;;;;;7368699;19;1484;-65
2023/09/22 09:32:03;;;;;;;;;;;;;;;;;;7373034;19;1682;-62
2023/09/22 09:34:31;;;;;;;;;;;;;;;;;;7372060;19;1240;-61
2023/09/22 09:36:59;;;;;;;;;;;;;;;;;;7368039;19;1998;-61
2023/09/22 09:39:27;;;;;;;;;;;;;;;;;;7370159;19;1924;-63
2023/09/22 09:41:55;;;;;;;;;;;;;;;;;;7373067;19;1768;-62
2023/09/22 09:44:23;;;;;;;;;;;;;;;;;;7369894;19;843;-59
2023/09/22 09:46:51;;;;;;;;;;;;;;;;;;7370936;19;833;-62
2023/09/22 09:49:19;;;;;;;;;;;;;;;;;;7371966;19;1505;-64
2023/09/22 09:51:48;;;;;;;;;;;;;;;;;;7372964;19;1661;-63
2023/09/22 09:54:16;;;;;;;;;;;;;;;;;;7373825;19;1484;-63
2023/09/22 09:56:44;;;;;;;;;;;;;;;;;;7368289;19;1848;-63
2023/09/22 09:59:12;;;;;;;;;;;;;;;;;;7371148;19;1506;-65
2023/09/22 10:01:41;;;;;;;;;;;;;;;;;;7371441;19;1889;-62
2023/09/22 10:04:09;;;;;;;;;;;;;;;;;;7373192;19;1751;-64
2023/09/22 10:06:38;;;;;;;;;;;;;;;;;;7369031;19;1039;-62
2023/09/22 10:09:09;;;;;;;;;;;;;;;;;;7367251;19;1861;-62
2023/09/22 10:11:37;;;;;;;;;;;;;;;;;;7370865;19;1542;-62
2023/09/22 10:14:05;;;;;;;;;;;;;;;;;;7373303;19;1438;-64
2023/09/22 10:16:33;;;;;;;;;;;;;;;;;;7367595;19;1863;-62
2023/09/22 10:19:02;;;;;;;;;;;;;;;;;;7371208;19;1693;-63
2023/09/22 10:21:30;;;;;;;;;;;;;;;;;;7368813;19;1996;-63
2023/09/22 10:23:59;;;;;;;;;;;;;;;;;;7372217;19;1791;-63
2023/09/22 10:26:27;;;;;;;;;;;;;;;;;;7371281;19;1472;-63
2023/09/22 10:28:55;;;;;;;;;;;;;;;;;;7370384;19;1697;-61
2023/09/22 10:31:23;;;;;;;;;;;;;;;;;;7369877;19;1699;-61
2023/09/22 10:33:51;;;;;;;;;;;;;;;;;;7372781;19;1441;-61
2023/09/22 10:36:20;;;;;;;;;;;;;;;;;;7371119;19;1859;-61
2023/09/22 10:38:49;;;;;;;;;;;;;;;;;;7370093;19;1879;-62
2023/09/22 10:41:17;;;;;;;;;;;;;;;;;;7370433;19;1687;-62
2023/09/22 10:43:45;;;;;;;;;;;;;;;;;;7366921;19;870;-61
2023/09/22 10:46:13;;;;;;;;;;;;;;;;;;7368233;19;875;-63
2023/09/22 10:48:42;;;;;;;;;;;;;;;;;;7367117;19;1297;-62
2023/09/22 10:51:10;;;;;;;;;;;;;;;;;;7367870;19;755;-61
2023/09/22 10:53:39;;;;;;;;;;;;;;;;;;7367636;19;816;-63
2023/09/22 10:56:08;;;;;;;;;;;;;;;;;;7367708;19;763;-62
2023/09/22 10:58:37;;;;;;;;;;;;;;;;;;7363750;19;1296;-63
2023/09/22 11:01:05;;;;;;;;;;;;;;;;;;7367383;19;886;-62
2023/09/22 11:03:35;;;;;;;;;;;;;;;;;;7367929;19;1114;-65
2023/09/22 11:06:04;;;;;;;;;;;;;;;;;;7366878;19;867;-63
2023/09/22 11:08:32;;;;;;;;;;;;;;;;;;7365802;19;1844;-65
2023/09/22 11:11:01;;;;;;;;;;;;;;;;;;7370124;19;1425;-63
2023/09/22 11:13:29;;;;;;;;;;;;;;;;;;7370856;19;1368;-65
2023/09/22 11:15:57;;;;;;;;;;;;;;;;;;7370166;19;1205;-65
2023/09/22 11:18:25;;;;;;;;;;;;;;;;;;7364397;19;1842;-62
2023/09/22 11:20:53;;;;;;;;;;;;;;;;;;7365516;19;1941;-63
2023/09/22 11:23:22;;;;;;;;;;;;;;;;;;7368971;19;1480;-61
2023/09/22 11:25:50;;;;;;;;;;;;;;;;;;7366575;19;785;-63
2023/09/22 11:28:18;;;;;;;;;;;;;;;;;;7365936;19;1878;-63
2023/09/22 11:30:46;;;;;;;;;;;;;;;;;;7370718;19;1526;-63
2023/09/22 11:33:14;;;;;;;;;;;;;;;;;;7369285;19;953;-61
2023/09/22 11:35:43;;;;;;;;;;;;;;;;;;7368930;19;1465;-62
2023/09/22 11:38:11;;;;;;;;;;;;;;;;;;7364188;19;1851;-62
2023/09/22 11:40:39;;;;;;;;;;;;;;;;;;7368725;19;1589;-62
2023/09/22 11:43:07;;;;;;;;;;;;;;;;;;7365739;19;888;-62
2023/09/22 11:45:35;;;;;;;;;;;;;;;;;;7365969;19;825;-60
2023/09/22 11:48:03;;;;;;;;;;;;;;;;;;7368463;19;1647;-60
2023/09/22 11:50:31;;;;;;;;;;;;;;;;;;7367328;19;1492;-62
2023/09/22 11:52:59;;;;;;;;;;;;;;;;;;7368648;19;1636;-61
2023/09/22 11:55:28;;;;;;;;;;;;;;;;;;7368981;19;1555;-61
2023/09/22 11:57:56;;;;;;;;;;;;;;;;;;7365305;19;1880;-62
2023/09/22 12:00:24;;;;;;;;;;;;;;;;;;7366161;19;1515;-62
2023/09/22 12:02:53;;;;;;;;;;;;;;;;;;7368174;19;1604;-63
2023/09/22 12:05:21;;;;;;;;;;;;;;;;;;7369453;19;1145;-60
2023/09/22 12:07:49;;;;;;;;;;;;;;;;;;7368694;19;1572;-62
2023/09/22 12:10:17;;;;;;;;;;;;;;;;;;7365646;19;1674;-60
2023/09/22 12:12:46;;;;;;;;;;;;;;;;;;7367371;19;1793;-60
2023/09/22 12:15:14;;;;;;;;;;;;;;;;;;7369507;19;1342;-62
2023/09/22 12:17:43;;;;;;;;;;;;;;;;;;7367850;19;1861;-61
2023/09/22 12:20:12;;;;;;;;;;;;;;;;;;7366274;19;1484;-62
2023/09/22 12:22:40;;;;;;;;;;;;;;;;;;7368068;19;1805;-62
2023/09/22 12:25:09;;;;;;;;;;;;;;;;;;7368581;19;1476;-63
2023/09/22 12:27:37;;;;;;;;;;;;;;;;;;7364971;19;1672;-63
2023/09/22 12:30:06;;;;;;;;;;;;;;;;;;7361808;19;1870;-60
2023/09/22 12:32:34;;;;;;;;;;;;;;;;;;7371921;19;1668;-63
2023/09/22 12:35:05;;;;;;;;;;;;;;;;;;7372573;19;1682;-64
2023/09/22 12:37:33;;;;;;;;;;;;;;;;;;7371998;19;1865;-64
2023/09/22 12:40:02;;;;;;;;;;;;;;;;;;7369512;19;1304;-61
2023/09/22 12:42:31;;;;;;;;;;;;;;;;;;7370518;19;1797;-62
2023/09/22 12:44:59;;;;;;;;;;;;;;;;;;7370232;19;1864;-63
2023/09/22 12:47:28;;;;;;;;;;;;;;;;;;7372441;19;1725;-63
2023/09/22 12:49:56;;;;;;;;;;;;;;;;;;7371523;19;1708;-62
2023/09/22 12:52:24;;;;;;;;;;;;;;;;;;7375346;19;1457;-62
2023/09/22 12:54:52;;;;;;;;;;;;;;;;;;7370499;19;845;-65
2023/09/22 12:57:20;;;;;;;;;;;;;;;;;;7370078;19;1855;-64
2023/09/22 12:59:48;;;;;;;;;;;;;;;;;;7368776;19;1300;-62
2023/09/22 13:02:16;;;;;;;;;;;;;;;;;;7369389;19;1864;-62
2023/09/22 13:04:45;;;;;;;;;;;;;;;;;;7372838;19;1474;-64
2023/09/22 13:07:15;;;;;;;;;;;;;;;;;;7371206;19;860;-64
2023/09/22 13:09:44;;;;;;;;;;;;;;;;;;7367535;19;1628;-61
2023/09/22 13:12:12;;;;;;;;;;;;;;;;;;7372103;19;1950;-61
2023/09/22 13:14:41;;;;;;;;;;;;;;;;;;7372694;19;1561;-65
2023/09/22 13:17:09;;;;;;;;;;;;;;;;;;7373419;19;1922;-63
2023/09/22 13:19:37;;;;;;;;;;;;;;;;;;7372166;19;1539;-62
2023/09/22 13:22:05;;;;;;;;;;;;;;;;;;7370817;19;753;-64
2023/09/22 13:24:33;;;;;;;;;;;;;;;;;;7372729;19;1756;-61
2023/09/22 13:27:02;;;;;;;;;;;;;;;;;;7371521;19;871;-61
2023/09/22 13:29:30;;;;;;;;;;;;;;;;;;7372728;19;1625;-62
2023/09/22 13:31:58;;;;;;;;;;;;;;;;;;7370270;19;2235;-64
2023/09/22 13:34:26;;;;;;;;;;;;;;;;;;7372761;19;1799;-63
2023/09/22 13:36:54;;;;;;;;;;;;;;;;;;7372753;19;1704;-63
2023/09/22 13:39:23;;;;;;;;;;;;;;;;;;7370101;19;1948;-63
2023/09/22 13:41:51;;;;;;;;;;;;;;;;;;7372084;19;1723;-62
2023/09/22 13:44:20;;;;;;;;;;;;;;;;;;7373166;19;1641;-61
2023/09/22 13:46:48;;;;;;;;;;;;;;;;;;7372698;19;2081;-62
2023/09/22 13:49:16;;;;;;;;;;;;;;;;;;7371667;19;1485;-63
2023/09/22 13:51:44;;;;;;;;;;;;;;;;;;7369696;19;2324;-63
2023/09/22 13:54:13;;;;;;;;;;;;;;;;;;7368833;19;1840;-61
2023/09/22 13:56:41;;;;;;;;;;;;;;;;;;7369122;19;752;-64
2023/09/22 13:59:09;;;;;;;;;;;;;;;;;;7368379;19;1879;-61
2023/09/22 14:01:37;;;;;;;;;;;;;;;;;;7371585;19;1575;-61
2023/09/22 14:04:06;;;;;;;;;;;;;;;;;;7368417;19;797;-62
2023/09/22 14:06:34;;;;;;;;;;;;;;;;;;7370614;19;1959;-62
2023/09/22 14:09:02;;;;;;;;;;;;;;;;;;7371222;19;1694;-61
2023/09/22 14:11:31;;;;;;;;;;;;;;;;;;7374198;19;1559;-62
2023/09/22 14:13:59;;;;;;;;;;;;;;;;;;7369388;19;830;-62
2023/09/22 14:16:27;;;;;;;;;;;;;;;;;;7367800;19;896;-62
2023/09/22 14:18:55;;;;;;;;;;;;;;;;;;7366602;19;1859;-67
2023/09/22 14:21:24;;;;;;;;;;;;;;;;;;7369822;19;1664;-61
2023/09/22 14:23:52;;;;;;;;;;;;;;;;;;7370833;19;1829;-62
2023/09/22 14:26:20;;;;;;;;;;;;;;;;;;7368586;19;1693;-62
2023/09/22 14:28:48;;;;;;;;;;;;;;;;;;7370923;19;1496;-64
2023/09/22 14:31:16;;;;;;;;;;;;;;;;;;7368098;19;898;-61
2023/09/22 14:33:45;;;;;;;;;;;;;;;;;;7368722;19;801;-64
2023/09/22 14:36:13;;;;;;;;;;;;;;;;;;7368869;19;2110;-64
2023/09/22 14:38:41;;;;;;;;;;;;;;;;;;7370211;19;1854;-60
2023/09/22 14:41:10;;;;;;;;;;;;;;;;;;7372070;19;1706;-62
2023/09/22 14:43:38;;;;;;;;;;;;;;;;;;7371272;19;1463;-61
2023/09/22 14:46:07;;;;;;;;;;;;;;;;;;7366651;19;1998;-64
2023/09/22 14:48:36;;;;;;;;;;;;;;;;;;7370007;19;1895;-61
2023/09/22 14:51:06;;;;;;;;;;;;;;;;;;7369889;19;1846;-63
2023/09/22 14:53:40;;;;;;;;;;;;;;;;;;7366414;19;1665;-62
2023/09/22 14:56:09;;;;;;;;;;;;;;;;;;7364002;19;970;-64
2023/09/22 14:58:38;;;;;;;;;;;;;;;;;;7366244;19;1841;-61
2023/09/22 15:01:06;;;;;;;;;;;;;;;;;;7367226;19;850;-64
2023/09/22 15:03:34;;;;;;;;;;;;;;;;;;7367423;19;802;-61
2023/09/22 15:06:02;;;;;;;;;;;;;;;;;;7367194;19;1001;-65
2023/09/22 15:08:30;;;;;;;;;;;;;;;;;;7367442;19;1332;-63
2023/09/22 15:10:58;;;;;;;;;;;;;;;;;;7367732;19;818;-65
2023/09/22 15:13:26;;;;;;;;;;;;;;;;;;7367705;19;793;-65
2023/09/22 15:15:55;;;;;;;;;;;;;;;;;;7366154;19;2116;-64
2023/09/22 15:18:23;;;;;;;;;;;;;;;;;;7367334;19;1936;-62
2023/09/22 15:20:52;;;;;;;;;;;;;;;;;;7370530;19;1465;-61
2023/09/22 15:23:20;;;;;;;;;;;;;;;;;;7366520;19;817;-65
2023/09/22 15:25:48;;;;;;;;;;;;;;;;;;7367366;19;1813;-65
2023/09/22 15:28:17;;;;;;;;;;;;;;;;;;7371050;19;1435;-63
2023/09/22 15:30:45;;;;;;;;;;;;;;;;;;7370442;19;1831;-61
2023/09/22 15:33:13;;;;;;;;;;;;;;;;;;7370131;19;1624;-63
2023/09/22 15:35:41;;;;;;;;;;;;;;;;;;7364950;19;1988;-62
2023/09/22 15:38:11;;;;;;;;;;;;;;;;;;7369690;19;1850;-64
2023/09/22 15:40:41;;;;;;;;;;;;;;;;;;7366824;19;885;-64
2023/09/22 15:43:09;;;;;;;;;;;;;;;;;;7365782;19;2002;-67
2023/09/22 15:45:38;;;;;;;;;;;;;;;;;;7367954;19;1670;-66
2023/09/22 15:48:06;;;;;;;;;;;;;;;;;;7369351;19;1663;-67
2023/09/22 15:50:34;;;;;;;;;;;;;;;;;;7368966;19;1652;-66
2023/09/22 15:53:02;;;;;;;;;;;;;;;;;;7368729;19;1481;-68
2023/09/22 15:55:30;;;;;;;;;;;;;;;;;;7367707;19;1684;-65
2023/09/22 15:57:59;;;;;;;;;;;;;;;;;;7367778;19;1853;-64
2023/09/22 16:00:27;;;;;;;;;;;;;;;;;;7366821;19;1569;-65
2023/09/22 16:02:56;;;;;;;;;;;;;;;;;;7365257;19;806;-60
2023/09/22 16:05:24;;;;;;;;;;;;;;;;;;7367424;19;806;-64
2023/09/22 16:07:52;;;;;;;;;;;;;;;;;;7380929;19;837;-65
2023/09/22 16:10:20;;;;;;;;;;;;;;;;;;7379835;19;1821;-64
2023/09/22 16:12:48;;;;;;;;;;;;;;;;;;7382560;19;1658;-62
2023/09/22 16:15:16;;;;;;;;;;;;;;;;;;7381790;19;1620;-63
2023/09/22 16:17:44;;;;;;;;;;;;;;;;;;7379129;19;846;-63
2023/09/22 16:20:13;;;;;;;;;;;;;;;;;;7379585;19;1614;-61
2023/09/22 16:22:41;;;;;;;;;;;;;;;;;;7382579;19;1228;-63
2023/09/22 16:25:10;;;;;;;;;;;;;;;;;;7382521;19;2071;-62
2023/09/22 16:27:39;;;;;;;;;;;;;;;;;;7379344;19;939;-62
2023/09/22 16:30:08;;;;;;;;;;;;;;;;;;7379861;19;1582;-60
2023/09/22 16:32:37;;;;;;;;;;;;;;;;;;7381623;19;1445;-61
2023/09/22 16:35:05;;;;;;;;;;;;;;;;;;7378171;19;801;-62
2023/09/22 16:37:34;;;;;;;;;;;;;;;;;;7382149;19;1572;-64
2023/09/22 16:40:02;;;;;;;;;;;;;;;;;;7379523;19;1841;-61
2023/09/22 16:42:31;;;;;;;;;;;;;;;;;;7378159;19;837;-61
2023/09/22 16:44:59;;;;;;;;;;;;;;;;;;7378264;19;806;-61
2023/09/22 16:47:27;;;;;;;;;;;;;;;;;;7382209;19;1819;-62
2023/09/22 16:49:55;;;;;;;;;;;;;;;;;;7379434;19;1792;-60
2023/09/22 16:52:24;;;;;;;;;;;;;;;;;;7383514;19;1435;-62
2023/09/22 16:54:52;;;;;;;;;;;;;;;;;;7377186;19;1018;-60
2023/09/22 16:57:20;;;;;;;;;;;;;;;;;;7380689;19;1601;-59
2023/09/22 16:59:48;;;;;;;;;;;;;;;;;;7377082;19;1838;-59
2023/09/22 17:02:16;;;;;;;;;;;;;;;;;;7382308;19;1469;-61
2023/09/22 17:04:45;;;;;;;;;;;;;;;;;;7380966;19;1433;-60
2023/09/22 17:07:13;;;;;;;;;;;;;;;;;;7380511;19;1881;-61
2023/09/22 17:09:41;;;;;;;;;;;;;;;;;;7379786;19;1625;-60
2023/09/22 17:12:10;;;;;;;;;;;;;;;;;;7379132;19;853;-61
2023/09/22 17:14:38;;;;;;;;;;;;;;;;;;7380320;19;2057;-59